Time;durP1;ratioP1;P1;durP2;ratioP2;P2;SDS_P1;SDS_P2;PMS_P1;PMS_P2;Temp;Humidity;BMP_temperature;BMP_pressure;BME280_temperature;BME280_humidity;BME280_pressure;Samples;Min_cycle;Max_cycle;Signal;HPM_P1;HPM_P2
2023/05/20 00:00:02;;;;;;;18.63;12.43;;;;;;;16.83;100.00;100764.66;5110547;28;20035;-63
2023/05/20 00:02:28;;;;;;;17.52;12.82;;;;;;;16.73;100.00;100748.50;5109289;28;20570;-62
2023/05/20 00:04:54;;;;;;;18.00;12.98;;;;;;;16.76;100.00;100758.16;5110761;27;20023;-63
2023/05/20 00:07:20;;;;;;;15.23;12.68;;;;;;;16.54;100.00;100728.97;5110757;28;20077;-63
2023/05/20 00:09:45;;;;;;;17.23;13.25;;;;;;;16.54;100.00;100735.22;5110371;28;20685;-69
2023/05/20 00:12:10;;;;;;;15.93;12.38;;;;;;;16.61;100.00;100755.22;5110479;28;20119;-69
2023/05/20 00:14:36;;;;;;;14.32;12.48;;;;;;;16.53;100.00;100749.78;5110487;28;20031;-69
2023/05/20 00:17:01;;;;;;;15.52;11.88;;;;;;;16.56;100.00;100762.13;5110540;28;20023;-69
2023/05/20 00:19:27;;;;;;;18.95;12.82;;;;;;;16.50;100.00;100754.66;5109190;28;20053;-69
2023/05/20 00:21:52;;;;;;;20.88;13.38;;;;;;;16.44;100.00;100764.28;5110447;28;20427;-69
2023/05/20 00:24:17;;;;;;;16.35;13.23;;;;;;;16.42;100.00;100765.44;5110400;28;20472;-70
2023/05/20 00:26:43;;;;;;;18.77;13.00;;;;;;;16.30;100.00;100755.88;5110003;28;20047;-70
2023/05/20 00:29:08;;;;;;;18.33;13.60;;;;;;;16.31;100.00;100763.00;5088339;28;20470;-69
2023/05/20 00:31:34;;;;;;;19.88;13.57;;;;;;;16.27;100.00;100756.19;5089727;28;20031;-70
2023/05/20 00:33:59;;;;;;;17.00;13.70;;;;;;;16.24;100.00;100761.91;5089923;28;20032;-70
2023/05/20 00:36:26;;;;;;;18.63;13.65;;;;;;;16.24;100.00;100761.91;5090113;28;20031;-62
2023/05/20 00:38:51;;;;;;;18.65;14.35;;;;;;;16.10;100.00;100751.69;5089738;28;20389;-64
2023/05/20 00:41:17;;;;;;;18.40;14.07;;;;;;;16.10;100.00;100747.16;5089435;28;20114;-64
2023/05/20 00:43:42;;;;;;;16.92;13.90;;;;;;;16.17;100.00;100764.44;5089344;28;20036;-63
2023/05/20 00:46:08;;;;;;;18.80;15.27;;;;;;;16.14;100.00;100763.88;5089402;28;20027;-63
2023/05/20 00:48:42;;;;;;;19.95;15.43;;;;;;;16.10;100.00;100760.66;5089265;28;20361;-64
2023/05/20 00:51:07;;;;;;;23.08;15.23;;;;;;;16.02;100.00;100751.66;5089021;28;20632;-62
2023/05/20 00:53:35;;;;;;;21.25;14.52;;;;;;;16.04;100.00;100755.03;5087933;28;20036;-64
2023/05/20 00:56:00;;;;;;;20.85;15.60;;;;;;;15.99;100.00;100747.38;5089387;28;20028;-63
2023/05/20 00:58:26;;;;;;;18.95;15.73;;;;;;;15.97;100.00;100748.56;5086948;28;20081;-64
2023/05/20 01:00:51;;;;;;;19.70;15.27;;;;;;;15.83;100.00;100731.03;5089388;28;20096;-65
2023/05/20 01:03:17;;;;;;;20.40;14.45;;;;;;;15.97;100.00;100754.84;5089521;28;20061;-64
2023/05/20 01:05:42;;;;;;;19.05;15.00;;;;;;;15.77;100.00;100718.19;5087949;28;20024;-64
2023/05/20 01:08:08;;;;;;;20.52;15.82;;;;;;;15.94;100.00;100738.91;5089550;28;20039;-64
2023/05/20 01:10:38;;;;;;;18.70;15.75;;;;;;;15.90;100.00;100741.06;5087646;28;20516;-63
2023/05/20 01:13:07;;;;;;;23.75;15.43;;;;;;;15.93;100.00;100739.94;5089317;28;20039;-64
2023/05/20 01:15:34;;;;;;;22.52;15.55;;;;;;;15.93;100.00;100743.47;5089111;28;20024;-63
2023/05/20 01:18:07;;;;;;;20.73;16.13;;;;;;;15.93;100.00;100734.53;5089704;28;20074;-64
2023/05/20 01:20:34;;;;;;;24.63;16.07;;;;;;;15.73;100.00;100711.34;5089264;28;20032;-64
2023/05/20 01:23:00;;;;;;;23.88;16.55;;;;;;;15.97;100.00;100746.72;5089569;28;20540;-70
2023/05/20 01:25:26;;;;;;;21.95;15.93;;;;;;;15.97;100.00;100746.72;5089299;28;20036;-70
2023/05/20 01:27:53;;;;;;;22.15;16.25;;;;;;;15.98;100.00;100750.25;5090711;28;20036;-69
2023/05/20 01:30:19;;;;;;;22.00;16.50;;;;;;;15.90;100.00;100729.44;5099905;28;20040;-69
2023/05/20 01:33:01;;;;;;;21.92;17.38;;;;;;;16.00;100.00;100745.53;5109416;28;20031;-70
2023/05/20 01:35:28;;;;;;;25.55;17.25;;;;;;;16.00;100.00;100742.84;5108109;28;20490;-69
2023/05/20 01:37:56;;;;;;;23.20;17.30;;;;;;;15.75;100.00;100693.13;5109314;28;20023;-65
2023/05/20 01:40:22;;;;;;;24.42;17.30;;;;;;;15.93;100.00;100726.41;5109619;28;20028;-63
2023/05/20 01:42:51;;;;;;;24.17;17.50;;;;;;;15.96;100.00;100730.66;5109478;28;20119;-63
2023/05/20 01:45:18;;;;;;;22.40;16.48;;;;;;;15.92;100.00;100724.69;5109460;28;20019;-64
2023/05/20 01:47:46;;;;;;;24.27;16.92;;;;;;;16.08;100.00;100742.88;5109297;28;20062;-62
2023/05/20 01:50:12;;;;;;;23.98;17.08;;;;;;;15.84;100.00;100711.94;5109353;28;20085;-62
2023/05/20 01:52:37;;;;;;;19.48;15.98;;;;;;;16.08;100.00;100745.56;5109204;28;20480;-64
2023/05/20 01:55:03;;;;;;;21.60;15.57;;;;;;;16.02;100.00;100732.72;5109340;28;20036;-64
2023/05/20 01:57:28;;;;;;;22.08;15.50;;;;;;;16.02;100.00;100727.31;5109011;28;20023;-64
2023/05/20 01:59:54;;;;;;;22.77;15.88;;;;;;;16.14;100.00;100748.50;5109357;28;20103;-64
2023/05/20 02:02:19;;;;;;;25.48;16.77;;;;;;;16.03;100.00;100731.69;5109294;28;20084;-63
2023/05/20 02:04:47;;;;;;;21.40;15.93;;;;;;;15.99;100.00;100725.75;5112393;28;20064;-63
2023/05/20 02:07:14;;;;;;;19.63;15.60;;;;;;;16.10;100.00;100743.56;5110482;28;20019;-63
2023/05/20 02:09:39;;;;;;;22.98;17.65;;;;;;;16.07;100.00;100731.22;5097553;28;20115;-63
2023/05/20 02:12:06;;;;;;;21.38;16.55;;;;;;;16.01;100.00;100731.00;5112797;28;20677;-64
2023/05/20 02:14:31;;;;;;;26.60;17.25;;;;;;;16.05;100.00;100746.75;5112290;28;20023;-63
2023/05/20 02:16:56;;;;;;;24.40;17.20;;;;;;;16.04;100.00;100736.94;5112433;28;20487;-63
2023/05/20 02:19:22;;;;;;;22.52;15.65;;;;;;;15.98;100.00;100720.50;5112234;28;20028;-64
2023/05/20 02:21:49;;;;;;;21.52;16.35;;;;;;;16.11;100.00;100739.84;5112174;28;20039;-64
2023/05/20 02:24:15;;;;;;;20.88;16.73;;;;;;;15.99;100.00;100724.91;5112378;28;20103;-64
2023/05/20 02:26:40;;;;;;;24.67;16.55;;;;;;;16.10;100.00;100749.84;5112371;28;20126;-63
2023/05/20 02:29:06;;;;;;;24.52;16.83;;;;;;;16.06;100.00;100742.22;5112584;28;20580;-63
2023/05/20 02:31:31;;;;;;;21.30;16.42;;;;;;;16.06;100.00;100748.47;5112378;28;20038;-65
2023/05/20 02:33:57;;;;;;;21.23;15.52;;;;;;;15.97;100.00;100733.19;5112296;28;20115;-64
2023/05/20 02:36:22;;;;;;;19.50;15.35;;;;;;;16.04;100.00;100755.03;5112434;28;20555;-64
2023/05/20 02:38:48;;;;;;;23.60;16.30;;;;;;;15.88;100.00;100724.16;5112285;28;20016;-63
2023/05/20 02:41:13;;;;;;;19.30;15.45;;;;;;;16.00;100.00;100753.66;5112353;28;20023;-64
2023/05/20 02:43:39;;;;;;;20.45;15.57;;;;;;;16.01;100.00;100752.66;5112326;28;20043;-63
2023/05/20 02:46:05;;;;;;;18.45;14.95;;;;;;;15.99;100.00;100757.38;5112342;28;20456;-65
2023/05/20 02:48:31;;;;;;;21.17;15.52;;;;;;;15.93;100.00;100753.47;5111968;28;20028;-65
2023/05/20 02:50:58;;;;;;;21.95;15.43;;;;;;;15.97;100.00;100771.06;5111975;28;20152;-62
2023/05/20 02:53:24;;;;;;;19.65;14.60;;;;;;;15.98;100.00;100761.94;5111916;28;20024;-65
2023/05/20 02:55:50;;;;;;;19.88;14.48;;;;;;;15.90;100.00;100754.59;5093401;28;20027;-64
2023/05/20 02:58:16;;;;;;;20.15;13.85;;;;;;;15.83;100.00;100745.44;5112113;28;20509;-64
2023/05/20 03:00:42;;;;;;;15.63;13.15;;;;;;;15.86;100.00;100755.06;5112083;28;20482;-63
2023/05/20 03:03:09;;;;;;;21.38;15.50;;;;;;;15.88;100.00;100766.59;5111721;28;20030;-64
2023/05/20 03:05:36;;;;;;;24.23;14.18;;;;;;;15.93;100.00;100767.81;5111872;28;20395;-64
2023/05/20 03:08:09;;;;;;;19.17;13.68;;;;;;;15.89;100.00;100757.47;5111990;28;20020;-64
2023/05/20 03:10:36;;;;;;;18.83;14.13;;;;;;;15.89;100.00;100765.56;5111605;28;20023;-64
2023/05/20 03:13:03;;;;;;;23.15;13.98;;;;;;;15.89;100.00;100771.84;5111677;28;20023;-64
2023/05/20 03:15:28;;;;;;;19.92;13.43;;;;;;;15.90;100.00;100781.66;5110612;28;20398;-64
2023/05/20 03:17:54;;;;;;;19.88;13.20;;;;;;;15.90;100.00;100786.25;5111456;28;20027;-63
2023/05/20 03:20:20;;;;;;;18.38;13.27;;;;;;;15.89;100.00;100782.66;5111752;28;20027;-63
2023/05/20 03:22:45;;;;;;;16.67;12.73;;;;;;;15.85;100.00;100778.59;5111662;28;20560;-70
2023/05/20 03:25:11;;;;;;;19.13;13.80;;;;;;;15.88;100.00;100793.66;5111688;28;20147;-70
2023/05/20 03:27:36;;;;;;;17.73;13.93;;;;;;;15.78;100.00;100780.22;5110517;28;20506;-70
2023/05/20 03:30:03;;;;;;;17.90;13.25;;;;;;;15.86;100.00;100796.50;5110735;28;20075;-69
2023/05/20 03:32:29;;;;;;;15.25;12.70;;;;;;;15.79;100.00;100783.75;5110501;27;20035;-70
2023/05/20 03:34:56;;;;;;;16.67;12.50;;;;;;;15.68;100.00;100774.03;5110572;28;20468;-69
2023/05/20 03:37:22;;;;;;;20.27;13.68;;;;;;;15.88;100.00;100815.28;5110571;28;20023;-70
2023/05/20 03:39:48;;;;;;;19.27;13.15;;;;;;;15.87;100.00;100814.44;5103719;28;20034;-70
2023/05/20 03:42:13;;;;;;;15.60;11.95;;;;;;;15.88;100.00;100801.75;5110697;28;20044;-70
2023/05/20 03:44:38;;;;;;;14.02;11.77;;;;;;;15.87;100.00;100817.13;5110517;28;20016;-70
2023/05/20 03:47:04;;;;;;;14.35;12.00;;;;;;;15.87;100.00;100819.84;5092244;28;20035;-64
2023/05/20 03:49:30;;;;;;;14.35;12.48;;;;;;;15.88;100.00;100826.97;5110318;28;20029;-63
2023/05/20 03:51:55;;;;;;;18.33;11.52;;;;;;;15.92;100.00;100815.84;5110079;28;20036;-64
2023/05/20 03:54:21;;;;;;;14.02;11.40;;;;;;;15.89;100.00;100809.72;5110247;28;20033;-70
2023/05/20 03:56:48;;;;;;;18.60;12.05;;;;;;;15.97;100.00;100803.53;5109919;28;20028;-69
2023/05/20 03:59:13;;;;;;;18.38;12.57;;;;;;;16.01;100.00;100802.22;5106452;28;20020;-70
2023/05/20 04:01:38;;;;;;;16.92;12.70;;;;;;;16.04;100.00;100810.00;5109982;28;20457;-69
2023/05/20 04:04:04;;;;;;;15.25;10.98;;;;;;;15.90;100.00;100770.84;5109154;28;20054;-69
2023/05/20 04:06:30;;;;;;;16.65;12.20;;;;;;;16.02;100.00;100787.66;5095783;28;20399;-69
2023/05/20 04:08:56;;;;;;;16.65;12.65;;;;;;;15.99;100.00;100781.72;5110133;28;20535;-62
2023/05/20 04:11:21;;;;;;;16.05;11.20;;;;;;;16.27;100.00;100799.50;5091499;28;20028;-63
2023/05/20 04:13:47;;;;;;;15.85;11.27;;;;;;;16.42;100.00;100814.16;5091268;28;20500;-64
2023/05/20 04:16:13;;;;;;;14.75;11.68;;;;;;;16.52;100.00;100809.50;5091245;28;20034;-70
2023/05/20 04:18:39;;;;;;;14.75;11.18;;;;;;;16.57;100.00;100810.72;5109650;28;20039;-71
2023/05/20 04:21:05;;;;;;;15.38;11.23;;;;;;;16.67;100.00;100810.63;5109840;28;20079;-70
2023/05/20 04:23:30;;;;;;;13.10;9.95;;;;;;;16.76;100.00;100813.19;5109495;28;20027;-71
2023/05/20 04:26:01;;;;;;;14.60;11.23;;;;;;;16.67;100.00;100780.81;5091414;28;20392;-65
2023/05/20 04:28:30;;;;;;;14.32;11.00;;;;;;;16.95;100.00;100814.78;5089942;28;20047;-62
2023/05/20 04:31:03;;;;;;;14.60;10.82;;;;;;;17.00;100.00;100817.88;5109518;28;20584;-62
2023/05/20 04:33:29;;;;;;;15.53;9.80;;;;;;;17.12;100.00;100817.41;5110237;28;20060;-64
2023/05/20 04:36:00;;;;;;;14.45;10.60;;;;;;;17.23;100.00;100817.13;5109776;28;20032;-64
2023/05/20 04:38:28;;;;;;;13.65;10.80;;;;;;;17.29;100.00;100808.28;5091002;28;20495;-65
2023/05/20 04:40:57;;;;;;;14.98;11.20;;;;;;;17.40;100.00;100818.00;5109313;28;20391;-63
2023/05/20 04:43:24;;;;;;;10.85;9.38;;;;;;;17.27;100.00;100776.94;5108479;28;20039;-63
2023/05/20 04:45:52;;;;;;;12.50;10.05;;;;;;;17.53;100.00;100818.38;5095669;28;20058;-64
2023/05/20 04:48:18;;;;;;;12.15;10.25;;;;;;;17.49;100.00;100798.03;5109226;28;20106;-64
2023/05/20 04:50:44;;;;;;;12.07;9.73;;;;;;;17.58;100.00;100797.88;5096136;28;20485;-63
2023/05/20 04:53:10;;;;;;;11.68;10.32;;;;;;;17.78;99.97;100815.56;5109046;28;20027;-62
2023/05/20 04:55:36;;;;;;;11.75;9.88;;;;;;;17.83;99.76;100818.59;5102612;28;20037;-64
2023/05/20 04:58:02;;;;;;;14.88;10.18;;;;;;;17.89;98.13;100822.50;5104011;28;20077;-65
2023/05/20 05:00:28;;;;;;;13.68;9.82;;;;;;;17.84;97.67;100798.56;5108603;28;20024;-64
2023/05/20 05:02:54;;;;;;;12.25;10.35;;;;;;;18.05;96.95;100817.06;5108732;28;20037;-63
2023/05/20 05:05:19;;;;;;;11.82;9.00;;;;;;;18.08;96.50;100796.88;5089845;28;20106;-63
2023/05/20 05:07:44;;;;;;;12.30;10.73;;;;;;;18.22;96.47;100818.78;5106461;28;20126;-64
2023/05/20 05:10:10;;;;;;;10.77;9.50;;;;;;;18.25;95.30;100799.38;5106477;28;20043;-64
2023/05/20 05:12:36;;;;;;;12.43;10.13;;;;;;;18.43;94.39;100810.94;5107341;28;20376;-64
2023/05/20 05:15:01;;;;;;;18.38;9.50;;;;;;;18.57;92.47;100814.81;5088914;28;20034;-63
2023/05/20 05:17:27;;;;;;;12.30;9.30;;;;;;;18.67;92.59;100816.31;5106683;28;20023;-63
2023/05/20 05:19:53;;;;;;;13.40;9.18;;;;;;;18.56;91.70;100777.78;5105755;28;20015;-64
2023/05/20 05:22:18;;;;;;;13.45;9.27;;;;;;;18.83;90.78;100810.00;5107701;28;20020;-65
2023/05/20 05:24:44;;;;;;;15.63;9.48;;;;;;;18.90;89.77;100811.84;5108397;28;20027;-63
2023/05/20 05:27:09;;;;;;;9.63;8.68;;;;;;;18.95;87.28;100819.44;5108307;28;20110;-64
2023/05/20 05:29:35;;;;;;;15.40;9.23;;;;;;;18.89;87.36;100815.56;5104538;28;20055;-64
2023/05/20 05:32:00;;;;;;;10.73;9.35;;;;;;;18.70;87.76;100805.09;5108957;28;20993;-70
2023/05/20 05:34:25;;;;;;;11.25;9.15;;;;;;;18.70;88.39;100821.38;5108926;28;20039;-69
2023/05/20 05:36:51;;;;;;;12.82;10.02;;;;;;;18.60;89.37;100817.19;5109151;28;20082;-70
2023/05/20 05:39:16;;;;;;;11.82;9.73;;;;;;;18.57;88.84;100825.69;5111531;28;20035;-70
2023/05/20 05:41:42;;;;;;;11.77;9.60;;;;;;;18.48;90.49;100815.88;5112095;28;20030;-70
2023/05/20 05:44:07;;;;;;;13.88;9.38;;;;;;;18.44;91.11;100822.66;5112240;28;20058;-71
2023/05/20 05:46:33;;;;;;;14.52;10.07;;;;;;;18.43;91.74;100819.09;5112386;28;20410;-69
2023/05/20 05:48:58;;;;;;;14.15;10.60;;;;;;;18.43;92.30;100821.81;5112025;28;20039;-69
2023/05/20 05:51:26;;;;;;;16.52;10.25;;;;;;;18.47;90.75;100822.31;5112076;28;20556;-69
2023/05/20 05:53:52;;;;;;;11.65;9.60;;;;;;;18.23;91.16;100776.16;5111671;28;20016;-70
2023/05/20 05:56:17;;;;;;;11.80;9.20;;;;;;;18.36;91.32;100785.50;5111800;28;20039;-70
2023/05/20 05:58:43;;;;;;;11.93;10.27;;;;;;;18.49;90.78;100799.38;5111646;28;20028;-70
2023/05/20 06:01:08;;;;;;;11.77;9.52;;;;;;;18.66;90.07;100814.63;5112470;28;20026;-70
2023/05/20 06:03:34;;;;;;;15.13;9.90;;;;;;;18.67;90.55;100821.75;5111759;28;20020;-70
2023/05/20 06:05:59;;;;;;;14.07;10.52;;;;;;;18.57;90.62;100793.91;5097412;28;20020;-70
2023/05/20 06:08:25;;;;;;;12.77;10.88;;;;;;;18.68;90.99;100801.72;5111629;28;20066;-69
2023/05/20 06:10:51;;;;;;;14.65;9.95;;;;;;;18.74;91.60;100801.03;5111553;28;20095;-70
2023/05/20 06:13:16;;;;;;;13.25;9.25;;;;;;;18.87;91.55;100809.47;5111364;28;20027;-70
2023/05/20 06:15:44;;;;;;;14.10;10.25;;;;;;;18.91;91.11;100783.63;5111987;28;20057;-69
2023/05/20 06:18:11;;;;;;;11.30;9.40;;;;;;;19.25;90.75;100819.47;5111982;28;20023;-70
2023/05/20 06:20:36;;;;;;;11.73;9.00;;;;;;;19.41;88.82;100810.41;5111849;28;20038;-71
2023/05/20 06:23:02;;;;;;;12.80;10.38;;;;;;;19.64;87.43;100823.00;5111272;28;20020;-70
2023/05/20 06:25:27;;;;;;;14.70;10.55;;;;;;;19.60;85.25;100793.59;5111739;28;20036;-70
2023/05/20 06:27:52;;;;;;;16.45;10.02;;;;;;;19.87;84.12;100820.28;5111252;28;20077;-70
2023/05/20 06:30:18;;;;;;;12.32;9.02;;;;;;;20.03;84.44;100820.16;5111492;28;20034;-69
2023/05/20 06:32:44;;;;;;;10.52;9.43;;;;;;;20.07;84.17;100808.72;5111227;28;20384;-70
2023/05/20 06:35:10;;;;;;;12.85;9.60;;;;;;;20.28;83.99;100818.91;5111310;28;20031;-70
2023/05/20 06:37:36;;;;;;;13.38;9.57;;;;;;;20.43;82.49;100817.06;5110803;28;20031;-69
2023/05/20 06:40:02;;;;;;;13.27;9.90;;;;;;;20.53;81.60;100825.00;5111294;28;20035;-71
2023/05/20 06:42:27;;;;;;;14.82;9.07;;;;;;;20.62;79.61;100804.78;5110698;28;20106;-69
2023/05/20 06:44:53;;;;;;;12.20;11.00;;;;;;;20.77;78.15;100822.84;5110486;28;20099;-70
2023/05/20 06:47:19;;;;;;;14.20;10.18;;;;;;;20.73;77.98;100801.59;5109732;27;20038;-70
2023/05/20 06:49:44;;;;;;;11.70;9.65;;;;;;;20.85;77.84;100800.94;5110766;28;20553;-70
2023/05/20 06:52:10;;;;;;;12.65;10.38;;;;;;;21.02;76.66;100813.34;5110908;28;20027;-70
2023/05/20 06:54:40;;;;;;;14.68;9.77;;;;;;;21.13;75.38;100807.44;5110869;28;20175;-70
2023/05/20 06:57:09;;;;;;;9.93;8.70;;;;;;;21.18;76.57;100806.88;5094723;28;20495;-68
2023/05/20 06:59:35;;;;;;;12.65;9.05;;;;;;;21.16;76.09;100785.22;5110711;28;20106;-70
2023/05/20 07:02:02;;;;;;;11.48;9.05;;;;;;;21.44;75.40;100812.63;5095516;28;20118;-70
2023/05/20 07:04:27;;;;;;;13.98;9.38;;;;;;;21.53;75.99;100806.00;5110825;28;20022;-69
2023/05/20 07:06:53;;;;;;;14.13;9.63;;;;;;;21.71;71.06;100811.88;5107885;28;20027;-69
2023/05/20 07:09:18;;;;;;;13.18;9.70;;;;;;;21.74;71.83;100811.53;5108371;28;20102;-71
2023/05/20 07:11:44;;;;;;;10.18;8.30;;;;;;;21.83;71.82;100800.25;5110991;28;20036;-70
2023/05/20 07:14:10;;;;;;;10.20;9.18;;;;;;;21.89;71.55;100801.34;5111094;28;20035;-67
2023/05/20 07:16:35;;;;;;;11.02;8.73;;;;;;;21.95;71.61;100793.22;5111381;28;20489;-68
2023/05/20 07:19:02;;;;;;;17.58;10.15;;;;;;;22.12;71.06;100810.22;5111771;28;20045;-67
2023/05/20 07:21:27;;;;;;;8.68;7.78;;;;;;;22.25;69.58;100800.22;5111749;28;20388;-68
2023/05/20 07:23:53;;;;;;;10.10;8.68;;;;;;;22.29;69.60;100790.56;5106606;28;20084;-66
2023/05/20 07:26:18;;;;;;;10.88;8.35;;;;;;;22.47;70.11;100814.66;5112185;28;20024;-68
2023/05/20 07:28:45;;;;;;;15.10;9.70;;;;;;;22.46;67.99;100815.72;5111401;28;20043;-68
2023/05/20 07:31:11;;;;;;;16.40;9.88;;;;;;;22.57;66.07;100820.66;5109314;28;20028;-68
2023/05/20 07:33:37;;;;;;;14.43;9.38;;;;;;;22.60;67.10;100819.44;5099757;28;20039;-67
2023/05/20 07:36:02;;;;;;;12.00;9.48;;;;;;;22.51;67.71;100807.81;5111078;28;20114;-67
2023/05/20 07:38:28;;;;;;;10.43;9.32;;;;;;;22.60;67.55;100822.19;5111284;28;20028;-66
2023/05/20 07:40:53;;;;;;;10.93;9.15;;;;;;;22.61;67.87;100810.19;5111152;28;20030;-68
2023/05/20 07:43:19;;;;;;;11.60;9.27;;;;;;;22.61;68.15;100810.19;5113469;28;20027;-69
2023/05/20 07:45:45;;;;;;;12.88;9.27;;;;;;;22.67;68.67;100806.66;5111796;28;20058;-69
2023/05/20 07:48:11;;;;;;;12.52;9.18;;;;;;;22.68;69.01;100800.97;5103326;28;20139;-69
2023/05/20 07:50:38;;;;;;;11.85;9.48;;;;;;;22.78;67.27;100814.28;5112687;28;20035;-70
2023/05/20 07:53:04;;;;;;;13.30;9.38;;;;;;;22.87;67.00;100810.34;5111168;28;20460;-70
2023/05/20 07:55:32;;;;;;;9.68;8.77;;;;;;;22.89;67.68;100811.00;5110704;28;20376;-70
2023/05/20 07:57:58;;;;;;;13.77;8.48;;;;;;;22.86;67.76;100797.72;5101244;28;20440;-69
2023/05/20 08:00:23;;;;;;;12.90;9.02;;;;;;;22.97;67.83;100806.19;5110417;28;20045;-70
2023/05/20 08:02:49;;;;;;;13.82;9.40;;;;;;;22.99;66.94;100778.63;5109127;28;20043;-70
2023/05/20 08:05:14;;;;;;;10.02;8.95;;;;;;;23.13;67.52;100794.06;5110594;28;20081;-69
2023/05/20 08:07:40;;;;;;;12.40;9.68;;;;;;;23.09;67.21;100782.69;5110242;28;20031;-69
2023/05/20 08:10:06;;;;;;;9.93;8.32;;;;;;;23.17;67.19;100785.22;5110323;28;20036;-69
2023/05/20 08:12:32;;;;;;;12.32;9.27;;;;;;;23.29;65.67;100791.84;5110540;28;20027;-71
2023/05/20 08:14:57;;;;;;;12.30;9.60;;;;;;;23.37;64.44;100782.59;5100800;28;20023;-69
2023/05/20 08:17:23;;;;;;;13.35;9.82;;;;;;;23.27;65.04;100773.91;5105947;28;20368;-69
2023/05/20 08:19:48;;;;;;;10.48;9.48;;;;;;;23.34;65.27;100774.81;5110172;28;20468;-68
2023/05/20 08:22:14;;;;;;;10.45;9.32;;;;;;;23.50;64.33;100785.34;5101315;28;20026;-70
2023/05/20 08:24:40;;;;;;;12.55;8.55;;;;;;;23.53;63.20;100776.72;5094137;28;20019;-69
2023/05/20 08:27:05;;;;;;;15.98;8.68;;;;;;;23.55;63.46;100780.97;5110081;28;20433;-70
2023/05/20 08:29:31;;;;;;;11.48;9.07;;;;;;;23.58;63.27;100766.00;5094226;28;20044;-70
2023/05/20 08:31:56;;;;;;;11.45;8.93;;;;;;;23.65;63.34;100773.19;5110101;28;20395;-71
2023/05/20 08:34:21;;;;;;;12.80;9.07;;;;;;;23.73;64.57;100778.47;5095203;28;20030;-70
2023/05/20 08:36:47;;;;;;;10.48;9.13;;;;;;;23.81;64.36;100763.72;5115137;28;20106;-69
2023/05/20 08:39:14;;;;;;;9.90;8.82;;;;;;;23.73;64.43;100762.03;5115017;28;20023;-70
2023/05/20 08:41:39;;;;;;;12.27;9.82;;;;;;;23.80;63.46;100781.22;5115319;28;20029;-70
2023/05/20 08:44:07;;;;;;;9.73;8.55;;;;;;;23.82;63.39;100773.63;5114688;28;20085;-70
2023/05/20 08:46:34;;;;;;;12.63;9.68;;;;;;;23.88;64.13;100779.13;5109829;28;20047;-67
2023/05/20 08:48:59;;;;;;;11.55;8.85;;;;;;;23.85;61.21;100754.88;5110128;28;20020;-67
2023/05/20 08:51:27;;;;;;;13.05;8.38;;;;;;;23.99;62.14;100773.03;5110315;28;20046;-67
2023/05/20 08:53:53;;;;;;;10.30;9.30;;;;;;;23.94;62.61;100756.41;5110173;28;20065;-67
2023/05/20 08:56:20;;;;;;;15.07;9.18;;;;;;;24.08;60.62;100774.53;5099988;28;20097;-68
2023/05/20 08:58:46;;;;;;;12.65;8.23;;;;;;;24.01;60.42;100762.72;5110148;28;20029;-67
2023/05/20 09:01:11;;;;;;;11.13;8.82;;;;;;;24.04;61.45;100761.44;5109885;28;20024;-68
2023/05/20 09:03:37;;;;;;;10.02;8.82;;;;;;;23.94;61.53;100747.31;5109767;28;20036;-68
2023/05/20 09:06:07;;;;;;;10.10;9.10;;;;;;;24.11;60.82;100768.63;5110040;28;20044;-70
2023/05/20 09:08:33;;;;;;;11.30;9.32;;;;;;;24.17;61.22;100758.69;5109009;28;20028;-71
2023/05/20 09:10:59;;;;;;;15.65;8.82;;;;;;;24.26;60.11;100762.91;5110434;28;20041;-70
2023/05/20 09:13:26;;;;;;;9.55;8.65;;;;;;;24.31;59.52;100761.22;5109197;28;20028;-70
2023/05/20 09:15:52;;;;;;;11.23;9.07;;;;;;;24.35;59.80;100761.66;5110466;28;20529;-71
2023/05/20 09:18:17;;;;;;;11.52;9.43;;;;;;;24.35;60.51;100756.16;5099015;28;20016;-71
2023/05/20 09:20:46;;;;;;;10.80;8.85;;;;;;;24.34;59.93;100757.19;5110671;28;20023;-70
2023/05/20 09:23:12;;;;;;;9.13;8.23;;;;;;;24.48;59.52;100770.69;5096671;28;20024;-71
2023/05/20 09:25:38;;;;;;;10.85;8.13;;;;;;;24.30;58.60;100723.03;5110092;28;20023;-70
2023/05/20 09:28:05;;;;;;;9.15;8.25;;;;;;;24.31;58.74;100709.13;5110210;28;20381;-70
2023/05/20 09:30:31;;;;;;;11.68;7.97;;;;;;;24.52;59.03;100734.59;5110394;28;20067;-71
2023/05/20 09:32:58;;;;;;;10.48;8.73;;;;;;;24.67;58.12;100741.56;5110197;28;20059;-70
2023/05/20 09:35:25;;;;;;;12.85;9.57;;;;;;;24.59;58.30;100732.69;5110156;28;20030;-70
2023/05/20 09:37:53;;;;;;;13.40;9.40;;;;;;;24.68;59.04;100745.13;5110292;28;20028;-69
2023/05/20 09:40:25;;;;;;;9.57;8.68;;;;;;;24.68;58.42;100740.50;5107321;28;20038;-70
2023/05/20 09:43:01;;;;;;;11.20;9.32;;;;;;;24.72;57.61;100733.53;5109792;28;20038;-69
2023/05/20 09:45:27;;;;;;;11.35;8.98;;;;;;;24.69;58.69;100728.47;5109877;28;20028;-69
2023/05/20 09:47:54;;;;;;;13.35;8.60;;;;;;;24.73;58.70;100728.88;5101080;28;20027;-69
2023/05/20 09:50:20;;;;;;;10.60;8.68;;;;;;;24.77;57.70;100725.50;5109507;28;20575;-70
2023/05/20 09:52:50;;;;;;;12.10;9.07;;;;;;;24.76;57.36;100723.78;5099529;28;20032;-70
2023/05/20 09:55:18;;;;;;;10.25;8.52;;;;;;;24.73;58.31;100724.22;5102978;28;20039;-69
2023/05/20 09:57:45;;;;;;;10.45;7.97;;;;;;;24.68;55.93;100715.81;5104666;28;20028;-70
2023/05/20 10:00:12;;;;;;;9.65;8.65;;;;;;;24.78;57.12;100723.56;5109745;28;20024;-70
2023/05/20 10:02:42;;;;;;;11.70;9.85;;;;;;;24.85;57.66;100718.94;5109465;28;20484;-71
2023/05/20 10:05:14;;;;;;;14.00;11.07;;;;;;;24.78;57.75;100686.00;5109421;28;20027;-70
2023/05/20 10:08:14;;;;;;;15.90;13.75;;;;;;;25.01;58.34;100707.44;5109589;28;20050;-70
2023/05/20 10:10:51;;;;;;;16.35;11.77;;;;;;;24.99;57.23;100704.06;5109183;28;20571;-70
2023/05/20 10:13:38;;;;;;;17.73;12.70;;;;;;;25.04;56.53;100704.25;5109479;28;20093;-70
2023/05/20 10:16:36;;;;;;;14.30;11.30;;;;;;;25.08;55.82;100700.84;5103335;28;20476;-70
2023/05/20 10:19:26;;;;;;;13.88;10.70;;;;;;;25.14;54.96;100694.47;5083173;28;20795;-70
2023/05/20 10:22:08;;;;;;;24.55;16.98;;;;;;;25.14;55.67;100690.88;5090911;28;20051;-69
2023/05/20 10:24:34;;;;;;;15.07;12.40;;;;;;;25.19;55.45;100685.59;5102345;28;20275;-70
2023/05/20 10:27:02;;;;;;;14.07;11.90;;;;;;;25.23;55.04;100682.19;5106582;28;20376;-69
2023/05/20 10:29:28;;;;;;;14.30;12.48;;;;;;;25.28;55.74;100681.53;5107330;28;20496;-69
2023/05/20 10:31:54;;;;;;;12.48;11.20;;;;;;;25.27;54.29;100688.06;5109791;28;20039;-70
2023/05/20 10:34:21;;;;;;;14.63;10.10;;;;;;;25.28;54.58;100678.78;5107721;28;20026;-69
2023/05/20 10:36:53;;;;;;;11.90;10.60;;;;;;;25.32;55.08;100677.31;5110102;28;20048;-70
2023/05/20 10:39:26;;;;;;;10.38;9.25;;;;;;;25.33;53.92;100671.59;5106654;28;20061;-70
2023/05/20 10:41:51;;;;;;;11.75;9.93;;;;;;;25.31;52.97;100659.16;5088505;28;20704;-69
2023/05/20 10:44:17;;;;;;;11.35;10.02;;;;;;;25.42;53.84;100655.69;5104348;27;20146;-71
2023/05/20 10:46:42;;;;;;;12.48;9.70;;;;;;;25.41;54.07;100656.75;5102796;27;20126;-71
2023/05/20 10:49:21;;;;;;;13.68;9.68;;;;;;;25.38;53.94;100641.56;5092603;28;20127;-70
2023/05/20 10:51:46;;;;;;;12.98;9.90;;;;;;;25.47;52.87;100656.69;5087683;28;20028;-71
2023/05/20 10:54:13;;;;;;;11.48;9.75;;;;;;;25.44;52.68;100643.41;5087745;28;20077;-72
2023/05/20 10:56:40;;;;;;;12.10;10.25;;;;;;;25.55;52.82;100653.69;5097098;28;20028;-72
2023/05/20 10:59:06;;;;;;;11.77;10.23;;;;;;;25.59;52.93;100651.31;5082695;27;20024;-70
2023/05/20 11:01:31;;;;;;;15.82;10.82;;;;;;;25.62;52.91;100651.72;5089579;28;20016;-70
2023/05/20 11:03:59;;;;;;;9.40;8.02;;;;;;;25.65;48.68;100643.03;5100063;28;20046;-70
2023/05/20 11:06:27;;;;;;;12.05;10.38;;;;;;;25.60;49.67;100645.59;5098124;28;20043;-67